Tom Frazier — WDD4376 — position and weather

sailwx.info

Track history (hours):
 
Tides and Currents Weather Stations Pressure Air Temp Water Temp Dewpoint Dewpoint Depression Visibility Wind Speed Wind Dir Waves Ship Positions

Tom Frazier

Owner: American Commercial Lines LLC, Jeffersonville, IN. More information available from US FCC via Universal Licensing System and Coast Guard Vessel Documentation Center.

Last reported at 2015-Jul-21 17:30 UTC. Time now 2015-Jul-29 00:35 UTC.
Position N 38°56' W 084°52'.

Length 48 m; draft 2.9 m.

MMSI: 367143910.

Date/timePositionNaut miles runAvg speedWind from/ knotsBaromVisibWave heightAir tempDewpointWater temp
2015-Jul-21 17:30N 38°56' W 084°52'9 4.3
2015-Jul-21 15:28N 39°05' W 084°52'5 5.4
2015-Jul-21 14:30N 39°08' W 084°46'4 4.2
2015-Jul-21 13:33N 39°06' W 084°42'0 0.2
2015-Jul-21 12:33N 39°06' W 084°41'0 0.0
2015-Jul-21 11:34N 39°06' W 084°41'0 0.0
2015-Jul-21 10:32N 39°06' W 084°41'0 0.0
2015-Jul-21 09:33N 39°06' W 084°41'0 0.0
2015-Jul-21 08:32N 39°06' W 084°41'0 0.0
2015-Jul-21 07:32N 39°06' W 084°41'0 0.0
2015-Jul-21 06:33N 39°06' W 084°41'0 0.0
2015-Jul-21 05:32N 39°06' W 084°41'0 0.0
2015-Jul-21 04:32N 39°06' W 084°41'0 0.0
2015-Jul-21 03:33N 39°06' W 084°41'0 0.0
2015-Jul-21 02:31N 39°06' W 084°41'0 0.2
2015-Jul-21 01:33N 39°06' W 084°41'0 0.0
2015-Jul-21 00:32N 39°06' W 084°41'0 0.1
2015-Jul-20 23:33N 39°06' W 084°41'5 4.6
2015-Jul-20 22:33N 39°05' W 084°35'4 4.4
2015-Jul-20 21:33N 39°06' W 084°30'3 3.3
2015-Jul-20 20:33N 39°05' W 084°26'5 4.9
2015-Jul-20 19:33N 39°02' W 084°21'5 5.4
2015-Jul-20 18:33N 38°57' W 084°17'6 5.6
2015-Jul-20 17:33N 38°52' W 084°14'16 3.7
2015-Jul-20 13:13N 38°46' W 083°55'4 5.2
2015-Jul-20 12:33N 38°45' W 083°51'11 2.3
2015-Jul-20 07:33N 38°38' W 083°40'0 0.0
2015-Jul-20 06:15N 38°38' W 083°40'1 1.1
2015-Jul-20 05:33N 38°38' W 083°41'  
Track history (hours):
 
Tides and Currents Weather Stations Pressure Air Temp Water Temp Dewpoint Dewpoint Depression Visibility Wind Speed Wind Dir Waves Ship Positions

Tom Frazier

Owner: American Commercial Lines LLC, Jeffersonville, IN. More information available from US FCC via Universal Licensing System and Coast Guard Vessel Documentation Center.

Last reported at 2015-Jul-21 17:30 UTC. Time now 2015-Jul-29 00:35 UTC.
Position N 38°56' W 084°52'.

Length 48 m; draft 2.9 m.

MMSI: 367143910.

Date/timePositionNaut miles runAvg speedWind from/ knotsBaromVisibWave heightAir tempDewpointWater temp
2015-Jul-21 17:30N 38°56' W 084°52'9 4.3
2015-Jul-21 15:28N 39°05' W 084°52'5 5.4
2015-Jul-21 14:30N 39°08' W 084°46'4 4.2
2015-Jul-21 13:33N 39°06' W 084°42'0 0.2
2015-Jul-21 12:33N 39°06' W 084°41'0 0.0
2015-Jul-21 11:34N 39°06' W 084°41'0 0.0
2015-Jul-21 10:32N 39°06' W 084°41'0 0.0
2015-Jul-21 09:33N 39°06' W 084°41'0 0.0
2015-Jul-21 08:32N 39°06' W 084°41'0 0.0
2015-Jul-21 07:32N 39°06' W 084°41'0 0.0
2015-Jul-21 06:33N 39°06' W 084°41'0 0.0
2015-Jul-21 05:32N 39°06' W 084°41'0 0.0
2015-Jul-21 04:32N 39°06' W 084°41'0 0.0
2015-Jul-21 03:33N 39°06' W 084°41'0 0.0
2015-Jul-21 02:31N 39°06' W 084°41'0 0.2
2015-Jul-21 01:33N 39°06' W 084°41'0 0.0
2015-Jul-21 00:32N 39°06' W 084°41'0 0.1
2015-Jul-20 23:33N 39°06' W 084°41'5 4.6
2015-Jul-20 22:33N 39°05' W 084°35'4 4.4
2015-Jul-20 21:33N 39°06' W 084°30'3 3.3
2015-Jul-20 20:33N 39°05' W 084°26'5 4.9
2015-Jul-20 19:33N 39°02' W 084°21'5 5.4
2015-Jul-20 18:33N 38°57' W 084°17'6 5.6
2015-Jul-20 17:33N 38°52' W 084°14'16 3.7
2015-Jul-20 13:13N 38°46' W 083°55'4 5.2
2015-Jul-20 12:33N 38°45' W 083°51'11 2.3
2015-Jul-20 07:33N 38°38' W 083°40'0 0.0
2015-Jul-20 06:15N 38°38' W 083°40'1 1.1
2015-Jul-20 05:33N 38°38' W 083°41'  

Dump ship's entire track history